LRCT - CAMPIA TURZII

Compiled: 11:31:42 on 21/04/2018

Latest METAR/SPECI Reports

METAR LRCT 211100Z VRB03KT 9999 SKC 19/07 Q1021 BLU BLU=

Previous reports

METAR LRCT 211000Z VRB03KT 9999 SKC 17/06 Q1022 BLU BLU=
METAR LRCT 210900Z VRB03KT 9999 SKC 16/07 Q1022 BLU BLU=
METAR LRCT 210800Z VRB03KT 9999 SKC 14/06 Q1023 BLU BLU=
METAR LRCT 210700Z VRB03KT 9999 SKC 12/06 Q1023 BLU BLU=

Latest TAF report

TAF LRCT 211100Z 2112/2212 VRB03KT 9999 SKC=

Valid WARNINGS

No valid warnings for LRCT